createdAt,value
2024-03-10T00:03:42.571Z,57.57
2024-03-10T00:08:44.655Z,57.82
2024-03-10T00:13:46.133Z,57.01
2024-03-10T00:18:47.615Z,58.54
2024-03-10T00:23:49.777Z,58.07
2024-03-10T00:28:51.295Z,57.59
2024-03-10T00:33:53.091Z,58.36
2024-03-10T00:38:54.885Z,58.74
2024-03-10T00:43:56.378Z,58.27
2024-03-10T00:48:57.906Z,58.62
2024-03-10T00:53:59.494Z,58.68
2024-03-10T00:59:01.047Z,58.63
2024-03-10T01:04:02.519Z,59.55
2024-03-10T01:09:05.224Z,59.03
2024-03-10T01:14:06.723Z,58.55
2024-03-10T01:19:12.488Z,59.53
2024-03-10T01:24:14.512Z,59.37
2024-03-10T01:29:17.610Z,59.70
2024-03-10T01:34:20.691Z,59.51
2024-03-10T01:39:23.848Z,59.27
2024-03-10T01:44:25.427Z,59.26
2024-03-10T01:49:27.866Z,59.86
2024-03-10T01:54:34.428Z,59.88
2024-03-10T01:59:36.150Z,59.41
2024-03-10T02:04:39.037Z,59.94
2024-03-10T02:09:40.748Z,59.29
2024-03-10T02:14:42.533Z,59.10
2024-03-10T02:19:44.032Z,60.13
2024-03-10T02:24:49.036Z,59.82
2024-03-10T02:30:09.171Z,59.20
2024-03-10T02:35:29.069Z,59.62
2024-03-10T02:40:49.229Z,59.78
2024-03-10T02:46:09.061Z,60.44
2024-03-10T02:51:10.497Z,60.02
2024-03-10T02:56:12.017Z,60.08
2024-03-10T03:01:17.389Z,60.03
2024-03-10T03:06:19.177Z,59.94
2024-03-10T03:11:21.158Z,60.29
2024-03-10T03:16:22.770Z,60.56
2024-03-10T03:21:24.867Z,60.53
2024-03-10T03:26:26.621Z,60.31
2024-03-10T03:31:28.123Z,60.83
2024-03-10T03:36:29.600Z,60.48
2024-03-10T03:41:31.068Z,60.86
2024-03-10T03:46:32.571Z,60.43
2024-03-10T03:51:34.047Z,60.63
2024-03-10T03:56:35.556Z,60.60
2024-03-10T04:01:37.819Z,61.47
2024-03-10T04:06:40.088Z,60.86
2024-03-10T04:11:41.627Z,60.89
2024-03-10T04:16:46.177Z,61.45
2024-03-10T04:21:48.972Z,61.04
2024-03-10T04:26:50.994Z,61.32
2024-03-10T04:31:54.123Z,61.60
2024-03-10T04:36:55.586Z,61.20
2024-03-10T04:41:57.063Z,60.82
2024-03-10T04:46:58.857Z,60.95
2024-03-10T04:52:01.611Z,60.62
2024-03-10T04:57:03.065Z,60.50
2024-03-10T05:02:04.888Z,61.06
2024-03-10T05:07:06.394Z,60.23
2024-03-10T05:12:10.124Z,60.38
2024-03-10T05:17:12.803Z,60.47
2024-03-10T05:22:14.497Z,60.38
2024-03-10T05:27:18.527Z,60.70
2024-03-10T05:32:20.368Z,60.33
2024-03-10T05:37:23.490Z,60.59
2024-03-10T05:42:25.061Z,60.51
2024-03-10T05:47:28.360Z,60.99
2024-03-10T05:52:29.860Z,61.83
2024-03-10T05:57:31.798Z,62.27
2024-03-10T06:02:33.702Z,61.73
2024-03-10T06:07:35.161Z,61.81
2024-03-10T06:12:38.637Z,62.17
2024-03-10T06:17:42.625Z,62.42
2024-03-10T06:23:02.978Z,62.41
2024-03-10T06:28:04.798Z,62.24
2024-03-10T06:33:06.305Z,62.50
2024-03-10T06:38:08.504Z,62.65
2024-03-10T06:43:10.055Z,63.02
2024-03-10T06:48:14.437Z,62.51
2024-03-10T06:53:15.929Z,62.71
2024-03-10T06:58:18.377Z,62.83
2024-03-10T07:03:20.003Z,62.78
2024-03-10T07:08:22.246Z,62.58
2024-03-10T07:13:24.171Z,63.23
2024-03-10T07:18:25.738Z,62.68
2024-03-10T07:23:27.380Z,62.36
2024-03-10T07:28:28.891Z,62.06
2024-03-10T07:33:30.506Z,61.60
2024-03-10T07:38:32.062Z,61.34
2024-03-10T07:43:33.582Z,61.74
2024-03-10T07:48:37.029Z,60.94
2024-03-10T07:53:38.502Z,61.53
2024-03-10T07:58:40.201Z,61.48
2024-03-10T08:03:42.167Z,61.18
2024-03-10T08:08:43.865Z,61.95
2024-03-10T08:13:46.025Z,62.34
2024-03-10T08:18:49.745Z,61.74
2024-03-10T08:23:52.594Z,61.53
2024-03-10T08:28:54.086Z,61.46
2024-03-10T08:33:55.874Z,61.84
2024-03-10T08:38:57.510Z,62.02
2024-03-10T08:44:01.244Z,61.88
2024-03-10T08:49:03.278Z,62.13
2024-03-10T08:54:09.077Z,62.43
2024-03-10T08:59:13.176Z,63.18
2024-03-10T09:04:15.164Z,63.09
2024-03-10T09:09:19.664Z,63.49
2024-03-10T09:14:21.434Z,63.04
2024-03-10T09:19:22.953Z,63.20
2024-03-10T09:24:24.460Z,62.64
2024-03-10T09:29:28.832Z,62.38
2024-03-10T09:34:31.549Z,62.42
2024-03-10T09:39:34.062Z,61.39
2024-03-10T09:44:37.583Z,61.48
2024-03-10T09:49:40.055Z,62.50
2024-03-10T09:54:42.105Z,61.41
2024-03-10T09:59:45.399Z,61.30
2024-03-10T10:04:58.352Z,59.83
2024-03-10T10:10:05.025Z,59.43
2024-03-10T10:15:08.759Z,58.43
2024-03-10T10:20:13.241Z,58.06
2024-03-10T10:25:16.021Z,58.37
2024-03-10T10:30:20.382Z,57.54
2024-03-10T10:35:23.207Z,57.59
2024-03-10T10:40:24.723Z,57.87
2024-03-10T10:45:28.392Z,56.51
2024-03-10T10:50:35.235Z,56.94
2024-03-10T10:55:41.216Z,57.02
2024-03-10T11:00:51.021Z,55.83
2024-03-10T11:06:09.446Z,55.45
2024-03-10T11:11:15.873Z,56.12
2024-03-10T11:16:25.848Z,55.28
2024-03-10T11:21:27.521Z,52.97
2024-03-10T11:26:29.626Z,54.55
2024-03-10T11:31:34.207Z,53.91
2024-03-10T11:36:38.166Z,53.25
2024-03-10T11:41:39.857Z,53.09
2024-03-10T11:46:41.349Z,53.94
2024-03-10T11:51:45.146Z,52.08
2024-03-10T11:56:51.835Z,51.92
2024-03-10T12:01:54.309Z,51.57
2024-03-10T12:06:55.806Z,51.94
2024-03-10T12:11:58.318Z,52.11
2024-03-10T12:17:00.140Z,52.54
2024-03-10T12:22:02.495Z,51.78
2024-03-10T12:27:07.668Z,51.39
2024-03-10T12:32:12.583Z,51.36
2024-03-10T12:37:14.150Z,52.39
2024-03-10T12:42:16.165Z,51.17
2024-03-10T12:47:18.043Z,53.75
2024-03-10T12:52:19.538Z,54.05
2024-03-10T12:57:22.618Z,53.59
2024-03-10T13:02:24.464Z,52.81
2024-03-10T13:07:26.508Z,52.66
2024-03-10T13:12:28.103Z,52.92
2024-03-10T13:17:30.422Z,53.47
2024-03-10T13:22:32.014Z,53.35
2024-03-10T13:27:36.397Z,52.92
2024-03-10T13:32:38.135Z,52.51
2024-03-10T13:37:39.760Z,52.45
2024-03-10T13:42:46.097Z,52.50
2024-03-10T13:47:49.078Z,52.16
2024-03-10T13:52:50.793Z,51.32
2024-03-10T13:57:55.084Z,51.64
2024-03-10T14:02:57.623Z,51.66
2024-03-10T14:08:00.619Z,51.74
2024-03-10T14:13:04.371Z,50.83
2024-03-10T14:18:08.310Z,51.07
2024-03-10T14:23:09.996Z,50.65
2024-03-10T14:28:11.592Z,51.15
2024-03-10T14:33:13.570Z,50.89
2024-03-10T14:38:15.168Z,50.62
2024-03-10T14:43:18.635Z,51.71
2024-03-10T14:48:20.149Z,51.91
2024-03-10T14:53:22.762Z,52.11
2024-03-10T14:58:24.964Z,51.76
2024-03-10T15:03:27.672Z,52.13
2024-03-10T15:08:29.298Z,52.35
2024-03-10T15:13:30.733Z,51.76
2024-03-10T15:18:35.212Z,51.37
2024-03-10T15:23:38.275Z,52.13
2024-03-10T15:28:39.734Z,51.74
2024-03-10T15:33:41.293Z,52.52
2024-03-10T15:38:42.952Z,52.42
2024-03-10T15:43:44.415Z,52.06
2024-03-10T15:48:46.750Z,52.41
2024-03-10T15:53:49.383Z,52.80
2024-03-10T15:58:54.699Z,51.87
2024-03-10T16:04:02.152Z,52.64
2024-03-10T16:09:05.816Z,52.44
2024-03-10T16:14:12.322Z,53.25
2024-03-10T16:19:15.087Z,52.56
2024-03-10T16:24:16.664Z,53.21
2024-03-10T16:29:19.318Z,53.08
2024-03-10T16:34:20.844Z,53.39
2024-03-10T16:39:24.224Z,54.31
2024-03-10T16:44:28.019Z,52.98
2024-03-10T16:49:30.663Z,52.70
2024-03-10T16:54:35.364Z,53.38
2024-03-10T16:59:36.995Z,53.69
2024-03-10T17:04:38.767Z,53.19
2024-03-10T17:09:40.523Z,53.95
2024-03-10T17:14:42.086Z,53.88
2024-03-10T17:19:43.546Z,53.37
2024-03-10T17:24:46.376Z,53.80
2024-03-10T17:29:47.887Z,53.87
2024-03-10T17:34:50.013Z,54.42
2024-03-10T17:39:55.409Z,53.80
2024-03-10T17:45:16.926Z,54.35
2024-03-10T17:50:19.796Z,54.27
2024-03-10T17:55:21.440Z,54.39
2024-03-10T18:00:23.750Z,54.55
2024-03-10T18:05:28.468Z,55.21
2024-03-10T18:10:29.973Z,54.17
2024-03-10T18:15:31.384Z,54.32
2024-03-10T18:20:32.941Z,54.95
2024-03-10T18:25:35.088Z,54.40
2024-03-10T18:30:41.102Z,54.42
2024-03-10T18:35:42.727Z,53.97
2024-03-10T18:40:51.517Z,54.24
2024-03-10T18:45:52.984Z,54.55
2024-03-10T18:51:02.145Z,54.69
2024-03-10T18:56:09.498Z,54.56
2024-03-10T19:01:12.315Z,54.98
2024-03-10T19:06:16.990Z,54.70
2024-03-10T19:11:19.104Z,54.46
2024-03-10T19:16:22.834Z,54.37
2024-03-10T19:21:24.391Z,54.52
2024-03-10T19:26:26.017Z,54.52
2024-03-10T19:31:27.631Z,54.68
2024-03-10T19:36:32.173Z,54.57
2024-03-10T19:41:33.817Z,55.09
2024-03-10T19:46:35.357Z,54.89
2024-03-10T19:51:37.689Z,55.35
2024-03-10T19:56:39.296Z,54.94
2024-03-10T20:01:40.804Z,55.31
2024-03-10T20:06:42.248Z,55.17
2024-03-10T20:11:44.571Z,55.49
2024-03-10T20:16:46.542Z,55.69
2024-03-10T20:21:48.403Z,55.48
2024-03-10T20:26:49.853Z,55.77
2024-03-10T20:31:51.534Z,55.94
2024-03-10T20:36:53.048Z,55.87
2024-03-10T20:41:54.560Z,56.52
2024-03-10T20:46:56.104Z,55.34
2024-03-10T20:51:57.806Z,56.02
2024-03-10T20:56:59.261Z,55.97
2024-03-10T21:02:01.635Z,55.79
2024-03-10T21:07:05.700Z,55.43
2024-03-10T21:12:08.546Z,56.03
2024-03-10T21:17:10.610Z,55.24
2024-03-10T21:22:13.898Z,56.24
2024-03-10T21:27:15.690Z,56.10
2024-03-10T21:32:17.377Z,56.08
2024-03-10T21:37:18.896Z,56.43
2024-03-10T21:42:20.863Z,56.47
2024-03-10T21:47:24.948Z,56.30
2024-03-10T21:52:26.896Z,56.58
2024-03-10T21:57:28.393Z,56.83
2024-03-10T22:02:29.880Z,56.74
2024-03-10T22:07:31.364Z,56.99
2024-03-10T22:12:33.001Z,57.41
2024-03-10T22:17:34.788Z,57.58
2024-03-10T22:22:36.385Z,57.77
2024-03-10T22:27:39.541Z,57.29
2024-03-10T22:32:41.210Z,57.55
2024-03-10T22:37:45.103Z,57.41
2024-03-10T22:42:49.354Z,57.22
2024-03-10T22:47:54.110Z,57.18
2024-03-10T22:52:56.999Z,57.43
2024-03-10T22:58:02.252Z,57.61
2024-03-10T23:03:07.490Z,57.30
2024-03-10T23:08:14.093Z,56.76
2024-03-10T23:13:17.085Z,56.70
2024-03-10T23:18:25.034Z,56.33
2024-03-10T23:23:27.307Z,56.89
2024-03-10T23:28:28.740Z,56.99
2024-03-10T23:33:30.840Z,56.72
2024-03-10T23:38:33.086Z,56.98
2024-03-10T23:43:34.565Z,57.50
2024-03-10T23:48:36.748Z,56.93
2024-03-10T23:53:41.573Z,57.08
2024-03-10T23:58:43.214Z,56.82
